createdAt,value
2018-01-15T00:01:57.645Z,51.35
2018-01-15T00:04:25.213Z,41.00
2018-01-15T00:06:53.472Z,46.80
2018-01-15T00:09:20.940Z,43.97
2018-01-15T00:11:48.504Z,44.28
2018-01-15T00:14:16.000Z,47.53
2018-01-15T00:16:43.460Z,44.65
2018-01-15T00:19:10.921Z,42.40
2018-01-15T00:21:38.399Z,45.25
2018-01-15T00:24:05.884Z,42.38
2018-01-15T00:26:33.356Z,45.65
2018-01-15T00:29:01.596Z,39.40
2018-01-15T00:31:29.085Z,46.28
2018-01-15T00:33:56.642Z,44.00
2018-01-15T00:36:24.188Z,49.05
2018-01-15T00:38:52.476Z,39.38
2018-01-15T00:41:19.952Z,45.38
2018-01-15T00:43:48.188Z,44.83
2018-01-15T00:46:15.674Z,42.03
2018-01-15T00:48:43.225Z,49.13
2018-01-15T00:51:10.705Z,44.40
2018-01-15T00:53:38.948Z,41.03
2018-01-15T00:56:06.412Z,43.63
2018-01-15T00:58:33.888Z,46.20
2018-01-15T01:01:02.140Z,45.72
2018-01-15T01:03:29.648Z,39.08
2018-01-15T01:05:57.147Z,40.92
2018-01-15T01:08:24.625Z,50.63
2018-01-15T01:10:52.848Z,51.83
2018-01-15T01:13:20.398Z,53.08
2018-01-15T01:15:47.897Z,46.92
2018-01-15T01:18:15.368Z,48.67
2018-01-15T01:20:42.848Z,54.60
2018-01-15T01:23:10.320Z,51.17
2018-01-15T01:25:37.931Z,47.40
2018-01-15T01:28:05.492Z,48.85
2018-01-15T01:30:33.764Z,50.17
2018-01-15T01:33:01.324Z,49.58
2018-01-15T01:35:29.562Z,44.55
2018-01-15T01:37:57.028Z,46.45
2018-01-15T01:40:24.511Z,44.40
2018-01-15T01:42:51.972Z,49.72
2018-01-15T01:45:19.529Z,46.83
2018-01-15T01:47:46.984Z,49.20
2018-01-15T01:50:15.219Z,44.47
2018-01-15T01:52:42.716Z,54.08
2018-01-15T01:55:11.691Z,49.28
2018-01-15T01:57:39.163Z,42.35
2018-01-15T02:00:06.732Z,54.75
2018-01-15T02:02:34.288Z,46.42
2018-01-15T02:05:01.766Z,48.20
2018-01-15T02:07:29.991Z,44.95
2018-01-15T02:09:57.611Z,45.33
2018-01-15T02:12:25.836Z,61.72
2018-01-15T02:14:53.295Z,49.83
2018-01-15T02:17:20.765Z,41.72
2018-01-15T02:19:48.223Z,48.85
2018-01-15T02:22:15.785Z,51.90
2018-01-15T02:24:43.348Z,48.20
2018-01-15T02:27:10.891Z,52.55
2018-01-15T02:29:38.364Z,45.78
2018-01-15T02:32:05.848Z,48.25
2018-01-15T02:34:33.328Z,46.90
2018-01-15T02:37:00.908Z,46.88
2018-01-15T02:39:28.366Z,46.72
2018-01-15T02:41:55.838Z,50.30
2018-01-15T02:44:24.811Z,54.47
2018-01-15T02:46:52.298Z,50.03
2018-01-15T02:49:19.858Z,54.20
2018-01-15T02:51:47.337Z,52.97
2018-01-15T02:54:14.804Z,54.45
2018-01-15T02:56:42.279Z,47.13
2018-01-15T02:59:09.829Z,51.05
2018-01-15T03:01:37.333Z,50.40
2018-01-15T03:04:04.887Z,44.38
2018-01-15T03:06:32.447Z,47.05
2018-01-15T03:09:00.704Z,48.05
2018-01-15T03:11:28.180Z,42.03
2018-01-15T03:13:55.657Z,64.60
2018-01-15T03:16:23.118Z,56.10
2018-01-15T03:18:51.351Z,49.75
2018-01-15T03:21:19.087Z,57.55
2018-01-15T03:23:46.564Z,50.20
2018-01-15T03:26:14.044Z,50.38
2018-01-15T03:28:41.610Z,52.62
2018-01-15T03:31:09.159Z,46.08
2018-01-15T03:33:37.404Z,59.55
2018-01-15T03:36:04.875Z,45.78
2018-01-15T03:38:32.351Z,48.22
2018-01-15T03:40:59.969Z,50.78
2018-01-15T03:43:27.427Z,51.22
2018-01-15T03:45:54.941Z,54.35
2018-01-15T03:48:22.395Z,59.72
2018-01-15T03:50:49.894Z,54.50
2018-01-15T03:53:17.401Z,51.08
2018-01-15T03:55:44.876Z,48.65
2018-01-15T03:58:13.106Z,56.70
2018-01-15T04:00:40.576Z,44.60
2018-01-15T04:03:08.036Z,57.83
2018-01-15T04:05:37.017Z,43.00
2018-01-15T04:08:04.483Z,45.70
2018-01-15T04:10:31.936Z,52.00
2018-01-15T04:12:59.395Z,55.53
2018-01-15T04:15:26.852Z,50.95
2018-01-15T04:17:54.316Z,52.10
2018-01-15T04:20:22.552Z,54.47
2018-01-15T04:22:50.044Z,51.37
2018-01-15T04:25:17.512Z,47.38
2018-01-15T04:27:45.783Z,50.33
2018-01-15T04:30:13.295Z,43.03
2018-01-15T04:32:40.787Z,50.83
2018-01-15T04:35:08.261Z,50.67
2018-01-15T04:37:35.814Z,46.70
2018-01-15T04:40:03.276Z,52.85
2018-01-15T04:42:30.723Z,47.33
2018-01-15T04:44:59.720Z,50.50
2018-01-15T04:47:27.275Z,45.95
2018-01-15T04:49:55.516Z,53.47
2018-01-15T04:52:23.008Z,45.83
2018-01-15T04:54:50.471Z,58.13
2018-01-15T04:57:17.979Z,46.10
2018-01-15T04:59:45.439Z,56.80
2018-01-15T05:02:12.899Z,45.90
2018-01-15T05:04:40.367Z,51.55
2018-01-15T05:07:07.845Z,51.33
2018-01-15T05:09:35.312Z,52.60
2018-01-15T05:12:02.863Z,45.70
2018-01-15T05:14:31.097Z,48.60
2018-01-15T05:16:58.566Z,48.60
2018-01-15T05:19:26.027Z,53.38
2018-01-15T05:21:53.522Z,53.13
2018-01-15T05:24:20.988Z,42.10
2018-01-15T05:26:49.217Z,47.28
2018-01-15T05:29:16.704Z,51.00
2018-01-15T05:31:44.168Z,51.10
2018-01-15T05:34:11.624Z,46.83
2018-01-15T05:36:39.172Z,51.13
2018-01-15T05:39:06.644Z,54.17
2018-01-15T05:41:34.873Z,50.90
2018-01-15T05:44:02.349Z,49.90
2018-01-15T05:46:29.808Z,51.33
2018-01-15T05:48:57.380Z,55.38
2018-01-15T05:51:24.835Z,55.85
2018-01-15T05:53:52.300Z,50.80
2018-01-15T05:56:20.583Z,55.83
2018-01-15T05:58:48.832Z,49.53
2018-01-15T06:01:16.413Z,43.20
2018-01-15T06:03:44.692Z,48.65
2018-01-15T06:06:12.936Z,51.15
2018-01-15T06:08:40.428Z,50.30
2018-01-15T06:11:08.703Z,47.30
2018-01-15T06:13:36.253Z,53.63
2018-01-15T06:16:04.489Z,54.65
2018-01-15T06:18:31.972Z,49.03
2018-01-15T06:20:59.439Z,53.63
2018-01-15T06:23:26.910Z,49.17
2018-01-15T06:25:55.165Z,49.33
2018-01-15T06:28:22.720Z,56.55
2018-01-15T06:30:50.945Z,56.53
2018-01-15T06:33:18.448Z,47.08
2018-01-15T06:35:46.008Z,42.25
2018-01-15T06:38:14.344Z,52.72
2018-01-15T06:40:41.803Z,62.20
2018-01-15T06:43:09.275Z,49.05
2018-01-15T06:45:36.736Z,50.83
2018-01-15T06:48:04.195Z,47.72
2018-01-15T06:50:31.676Z,48.95
2018-01-15T06:52:59.902Z,55.58
2018-01-15T06:55:27.509Z,48.60
2018-01-15T06:57:56.492Z,61.78
2018-01-15T07:00:25.475Z,51.72
2018-01-15T07:02:52.979Z,50.38
2018-01-15T07:05:20.461Z,52.20
2018-01-15T07:07:48.410Z,48.90
2018-01-15T07:10:16.630Z,50.28
2018-01-15T07:12:44.164Z,48.50
2018-01-15T07:15:11.673Z,61.75
2018-01-15T07:17:39.146Z,55.60
2018-01-15T07:20:07.388Z,52.75
2018-01-15T07:22:34.948Z,60.45
2018-01-15T07:25:02.517Z,50.12
2018-01-15T07:27:29.980Z,56.20
2018-01-15T07:29:58.256Z,52.78
2018-01-15T07:32:25.741Z,49.95
2018-01-15T07:34:53.205Z,57.42
2018-01-15T07:37:20.664Z,53.40
2018-01-15T07:39:48.172Z,58.78
2018-01-15T07:42:15.728Z,55.05
2018-01-15T07:44:44.056Z,59.83
2018-01-15T07:47:11.516Z,54.95
2018-01-15T07:49:38.984Z,53.85
2018-01-15T07:52:06.479Z,57.15
2018-01-15T07:54:34.410Z,48.50
2018-01-15T07:57:01.912Z,55.30
2018-01-15T07:59:29.376Z,51.80
2018-01-15T08:01:57.655Z,55.00
2018-01-15T08:04:25.907Z,57.95
2018-01-15T08:06:53.386Z,58.55
2018-01-15T08:09:21.707Z,55.88
2018-01-15T08:11:49.207Z,57.33
2018-01-15T08:14:16.687Z,57.08
2018-01-15T08:16:44.912Z,53.70
2018-01-15T08:19:12.389Z,53.83
2018-01-15T08:21:39.960Z,53.75
2018-01-15T08:24:07.457Z,48.87
2018-01-15T08:26:34.924Z,52.40
2018-01-15T08:29:02.428Z,50.35
2018-01-15T08:31:29.904Z,48.95
2018-01-15T08:33:58.281Z,50.80
2018-01-15T08:36:26.495Z,50.88
2018-01-15T08:38:53.965Z,52.40
2018-01-15T08:41:21.456Z,47.05
2018-01-15T08:43:48.938Z,52.88
2018-01-15T08:46:17.203Z,47.72
2018-01-15T08:48:45.432Z,46.50
2018-01-15T08:51:12.915Z,44.15
2018-01-15T08:53:40.380Z,41.00
2018-01-15T08:56:07.841Z,45.65
2018-01-15T08:58:36.106Z,49.88
2018-01-15T09:01:03.572Z,48.72
2018-01-15T09:03:31.028Z,43.53
2018-01-15T09:05:59.251Z,44.35
2018-01-15T09:08:26.712Z,38.88
2018-01-15T09:10:54.175Z,44.08
2018-01-15T09:13:21.631Z,40.97
2018-01-15T09:15:49.111Z,39.67
2018-01-15T09:18:18.557Z,35.95
2018-01-15T09:20:46.776Z,38.30
2018-01-15T09:23:14.254Z,33.78
2018-01-15T09:25:41.809Z,37.17
2018-01-15T09:28:09.290Z,27.87
2018-01-15T09:30:37.537Z,40.12
2018-01-15T09:33:05.096Z,38.53
2018-01-15T09:35:32.557Z,31.52
2018-01-15T09:38:00.017Z,28.80
2018-01-15T09:40:27.484Z,34.75
2018-01-15T09:42:54.949Z,30.35
2018-01-15T09:45:23.805Z,30.12
2018-01-15T09:47:51.428Z,31.83
2018-01-15T09:50:18.872Z,32.63
2018-01-15T09:52:46.337Z,33.33
2018-01-15T09:55:13.803Z,29.98
2018-01-15T09:57:41.277Z,27.75
2018-01-15T10:00:08.752Z,30.60
2018-01-15T10:02:36.319Z,39.47
2018-01-15T10:05:03.786Z,31.33
2018-01-15T10:07:31.329Z,28.87
2018-01-15T10:09:59.564Z,25.17
2018-01-15T10:12:27.064Z,28.20
2018-01-15T10:14:54.617Z,25.35
2018-01-15T10:17:22.167Z,27.35
2018-01-15T10:19:49.832Z,28.48
2018-01-15T10:22:17.392Z,30.95
2018-01-15T10:24:44.860Z,27.25
2018-01-15T10:27:12.334Z,24.95
2018-01-15T10:29:39.964Z,30.52
2018-01-15T10:32:07.470Z,27.75
2018-01-15T10:34:34.979Z,27.35
2018-01-15T10:37:02.570Z,29.20
2018-01-15T10:39:30.121Z,27.65
2018-01-15T10:41:57.665Z,27.00
2018-01-15T10:44:25.215Z,30.62
2018-01-15T10:46:52.789Z,27.92
2018-01-15T10:49:20.354Z,25.48
2018-01-15T10:51:47.801Z,28.52
2018-01-15T10:54:15.356Z,24.95
2018-01-15T10:56:42.932Z,26.15
2018-01-15T10:59:10.387Z,24.17
2018-01-15T11:01:37.928Z,30.08
2018-01-15T11:04:05.404Z,22.75
2018-01-15T11:06:33.636Z,25.15
2018-01-15T11:09:01.227Z,31.25
2018-01-15T11:11:28.782Z,24.23
2018-01-15T11:13:56.296Z,24.77
2018-01-15T11:16:23.787Z,22.45
2018-01-15T11:18:51.770Z,22.30
2018-01-15T11:21:19.232Z,23.30
2018-01-15T11:23:46.787Z,24.08
2018-01-15T11:26:14.254Z,20.70
2018-01-15T11:28:41.724Z,17.48
2018-01-15T11:31:09.969Z,21.20
2018-01-15T11:33:37.431Z,18.20
2018-01-15T11:36:04.888Z,19.12
2018-01-15T11:38:32.371Z,20.60
2018-01-15T11:41:00.607Z,21.65
2018-01-15T11:43:28.070Z,17.87
2018-01-15T11:45:55.628Z,18.45
2018-01-15T11:48:23.758Z,17.10
2018-01-15T11:50:51.279Z,19.05
2018-01-15T11:53:19.708Z,18.25
2018-01-15T11:55:47.171Z,18.62
2018-01-15T11:58:14.661Z,19.65
2018-01-15T12:00:42.121Z,16.77
2018-01-15T12:03:10.293Z,13.18
2018-01-15T12:05:37.750Z,21.17
2018-01-15T12:08:05.212Z,16.83
2018-01-15T12:10:33.457Z,17.12
2018-01-15T12:13:00.919Z,18.73
2018-01-15T12:15:28.385Z,14.00
2018-01-15T12:17:55.856Z,21.92
2018-01-15T12:20:24.084Z,16.45
2018-01-15T12:22:51.576Z,14.82
2018-01-15T12:25:19.048Z,20.60
2018-01-15T12:27:47.290Z,18.85
2018-01-15T12:30:14.743Z,17.02
2018-01-15T12:32:42.211Z,17.05
2018-01-15T12:35:09.695Z,20.40
2018-01-15T12:37:37.997Z,17.15
2018-01-15T12:40:06.198Z,16.87
2018-01-15T12:42:33.647Z,16.90
2018-01-15T12:45:01.115Z,20.65
2018-01-15T12:47:29.005Z,15.05
2018-01-15T12:49:56.577Z,21.58
2018-01-15T12:52:24.792Z,20.30
2018-01-15T12:54:52.293Z,18.85
2018-01-15T12:57:19.749Z,22.30
2018-01-15T12:59:47.313Z,16.83
2018-01-15T13:02:14.824Z,19.87
2018-01-15T13:04:42.324Z,17.95
2018-01-15T13:07:21.653Z,16.83
2018-01-15T13:09:49.215Z,18.40
2018-01-15T13:12:16.676Z,16.27
2018-01-15T13:14:44.136Z,17.65
2018-01-15T13:17:11.599Z,15.15
2018-01-15T13:19:39.076Z,20.25
2018-01-15T13:22:07.305Z,18.75
2018-01-15T13:24:34.879Z,19.83
2018-01-15T13:27:02.517Z,16.90
2018-01-15T13:29:29.997Z,18.55
2018-01-15T13:31:57.557Z,15.15
2018-01-15T13:34:25.119Z,30.58
2018-01-15T13:36:52.680Z,17.70
2018-01-15T13:39:20.231Z,22.50
2018-01-15T13:41:47.792Z,19.55
2018-01-15T13:44:15.256Z,21.27
2018-01-15T13:46:44.223Z,21.37
2018-01-15T13:49:11.725Z,16.73
2018-01-15T13:51:39.956Z,22.00
2018-01-15T13:54:07.435Z,23.27
2018-01-15T13:56:34.901Z,18.87
2018-01-15T13:59:03.125Z,18.60
2018-01-15T14:01:30.617Z,20.65
2018-01-15T14:03:58.179Z,19.55
2018-01-15T14:06:27.184Z,19.17
2018-01-15T14:08:54.645Z,20.10
2018-01-15T14:11:22.161Z,22.62
2018-01-15T14:13:49.612Z,22.73
2018-01-15T14:16:17.076Z,20.70
2018-01-15T14:18:44.552Z,22.15
2018-01-15T14:21:12.011Z,24.35
2018-01-15T14:23:39.473Z,18.40
2018-01-15T14:26:06.940Z,22.35
2018-01-15T14:28:35.172Z,20.90
2018-01-15T14:31:02.707Z,20.70
2018-01-15T14:33:30.175Z,19.33
2018-01-15T14:35:57.688Z,22.45
2018-01-15T14:38:27.208Z,20.58
2018-01-15T14:40:56.781Z,21.90
2018-01-15T14:43:24.258Z,24.23
2018-01-15T14:45:52.498Z,19.42
2018-01-15T14:48:19.968Z,20.10
2018-01-15T14:50:47.432Z,23.95
2018-01-15T14:53:14.992Z,17.48
2018-01-15T14:55:42.601Z,14.70
2018-01-15T14:58:10.061Z,23.60
2018-01-15T15:00:37.660Z,20.40
2018-01-15T15:03:05.120Z,18.33
2018-01-15T15:05:32.584Z,20.85
2018-01-15T15:08:00.908Z,18.52
2018-01-15T15:10:28.376Z,19.85
2018-01-15T15:12:55.872Z,19.25
2018-01-15T15:15:24.121Z,18.65
2018-01-15T15:17:51.575Z,21.10
2018-01-15T15:20:19.111Z,18.30
2018-01-15T15:22:46.576Z,23.12
2018-01-15T15:25:14.060Z,18.67
2018-01-15T15:27:41.518Z,16.83
2018-01-15T15:30:08.971Z,17.80
2018-01-15T15:32:36.433Z,22.08
2018-01-15T15:35:03.891Z,19.00
2018-01-15T15:37:31.443Z,17.35
2018-01-15T15:39:58.907Z,19.05
2018-01-15T15:42:26.487Z,16.83
2018-01-15T15:44:53.948Z,18.37
2018-01-15T15:47:22.206Z,18.87
2018-01-15T15:49:49.775Z,16.60
2018-01-15T15:52:18.053Z,16.62
2018-01-15T15:54:45.518Z,21.37
2018-01-15T15:57:13.749Z,13.93
2018-01-15T15:59:41.225Z,19.05
2018-01-15T16:02:08.704Z,17.62
2018-01-15T16:04:36.923Z,21.10
2018-01-15T16:07:04.410Z,17.83
2018-01-15T16:09:31.863Z,18.15
2018-01-15T16:11:59.326Z,21.23
2018-01-15T16:14:26.884Z,23.77
2018-01-15T16:16:55.128Z,18.95
2018-01-15T16:19:22.587Z,17.40
2018-01-15T16:22:01.843Z,16.55
2018-01-15T16:24:30.084Z,19.50
2018-01-15T16:26:57.536Z,18.55
2018-01-15T16:29:24.996Z,20.62
2018-01-15T16:31:52.467Z,19.20
2018-01-15T16:34:19.935Z,18.00
2018-01-15T16:36:47.413Z,16.60
2018-01-15T16:39:14.902Z,20.15
2018-01-15T16:41:43.136Z,20.65
2018-01-15T16:44:10.803Z,23.50
2018-01-15T16:46:38.275Z,23.10
2018-01-15T16:49:06.507Z,19.12
2018-01-15T16:51:33.963Z,22.45
2018-01-15T16:54:01.430Z,24.15
2018-01-15T16:56:28.884Z,17.87
2018-01-15T16:58:56.357Z,20.73
2018-01-15T17:01:23.995Z,17.37
2018-01-15T17:03:51.451Z,17.90
2018-01-15T17:06:18.933Z,19.37
2018-01-15T17:08:46.493Z,20.62
2018-01-15T17:11:13.967Z,18.58
2018-01-15T17:13:41.591Z,18.55
2018-01-15T17:16:09.171Z,19.37
2018-01-15T17:18:36.628Z,20.73
2018-01-15T17:21:04.184Z,18.10
2018-01-15T17:23:31.644Z,23.92
2018-01-15T17:25:59.101Z,20.95
2018-01-15T17:28:26.563Z,19.85
2018-01-15T17:30:58.937Z,19.62
2018-01-15T17:33:26.384Z,21.30
2018-01-15T17:35:53.850Z,21.67
2018-01-15T17:38:21.396Z,21.83
2018-01-15T17:40:48.957Z,19.23
2018-01-15T17:43:16.570Z,22.05
2018-01-15T17:45:44.071Z,21.85
2018-01-15T17:48:11.608Z,21.37
2018-01-15T17:50:39.077Z,20.17
2018-01-15T17:53:06.548Z,22.30
2018-01-15T17:55:34.097Z,22.00
2018-01-15T17:58:01.556Z,20.77
2018-01-15T18:00:29.124Z,25.98
2018-01-15T18:02:56.576Z,21.45
2018-01-15T18:05:24.082Z,22.30
2018-01-15T18:07:51.754Z,17.05
2018-01-15T18:10:19.248Z,25.98
2018-01-15T18:12:46.716Z,24.63
2018-01-15T18:15:14.276Z,26.23
2018-01-15T18:17:41.832Z,22.62
2018-01-15T18:20:09.280Z,22.50
2018-01-15T18:22:36.767Z,25.50
2018-01-15T18:25:04.991Z,24.05
2018-01-15T18:27:32.480Z,26.95
2018-01-15T18:29:59.989Z,24.87
2018-01-15T18:32:27.448Z,24.37
2018-01-15T18:34:54.945Z,20.02
2018-01-15T18:37:22.404Z,25.27
2018-01-15T18:39:49.867Z,25.77
2018-01-15T18:42:18.135Z,25.23
2018-01-15T18:44:46.378Z,27.27
2018-01-15T18:47:13.844Z,27.95
2018-01-15T18:49:41.468Z,23.92
2018-01-15T18:52:08.931Z,22.98
2018-01-15T18:54:36.401Z,27.67
2018-01-15T18:57:03.868Z,25.77
2018-01-15T18:59:31.324Z,23.62
2018-01-15T19:01:58.803Z,28.08
2018-01-15T19:04:26.309Z,23.33
2018-01-15T19:06:53.812Z,25.75
2018-01-15T19:09:21.274Z,23.15
2018-01-15T19:11:48.740Z,25.10
2018-01-15T19:14:16.221Z,29.63
2018-01-15T19:16:44.472Z,26.42
2018-01-15T19:19:11.928Z,27.27
2018-01-15T19:21:39.484Z,24.55
2018-01-15T19:24:06.946Z,28.15
2018-01-15T19:26:34.412Z,24.15
2018-01-15T19:29:02.652Z,18.02
2018-01-15T19:31:30.112Z,23.75
2018-01-15T19:33:57.576Z,25.20
2018-01-15T19:36:30.657Z,22.42
2018-01-15T19:38:58.164Z,27.87
2018-01-15T19:44:30.244Z,25.60
2018-01-15T19:47:03.974Z,25.77
2018-01-15T19:49:37.168Z,25.00
2018-01-15T19:52:10.460Z,24.23
2018-01-15T19:54:43.471Z,27.00
2018-01-15T19:57:16.755Z,26.75
2018-01-15T19:59:49.831Z,27.33
2018-01-15T20:02:23.118Z,24.98
2018-01-15T20:04:56.340Z,23.27
2018-01-15T20:07:29.560Z,24.15
2018-01-15T20:10:03.497Z,23.77
2018-01-15T20:12:30.953Z,25.95
2018-01-15T20:14:58.422Z,24.98
2018-01-15T20:17:25.906Z,27.52
2018-01-15T20:19:53.376Z,22.20
2018-01-15T20:22:20.827Z,25.27
2018-01-15T20:24:48.323Z,27.33
2018-01-15T20:27:16.544Z,19.73
2018-01-15T20:29:44.040Z,21.12
2018-01-15T20:32:12.268Z,22.67
2018-01-15T20:34:39.744Z,29.85
2018-01-15T20:37:07.274Z,23.42
2018-01-15T20:39:34.736Z,26.42
2018-01-15T20:42:02.234Z,24.02
2018-01-15T20:44:29.702Z,27.62
2018-01-15T20:46:57.963Z,23.87
2018-01-15T20:49:25.424Z,21.67
2018-01-15T20:51:52.912Z,27.30
2018-01-15T20:54:21.131Z,28.35
2018-01-15T20:56:48.604Z,27.13
2018-01-15T20:59:16.081Z,21.62
2018-01-15T21:01:44.309Z,22.92
2018-01-15T21:04:11.772Z,24.50
2018-01-15T21:06:39.236Z,21.00
2018-01-15T21:09:06.766Z,26.02
2018-01-15T21:11:34.249Z,34.20
2018-01-15T21:14:01.732Z,23.87
2018-01-15T21:16:29.208Z,18.33
2018-01-15T21:18:57.459Z,26.80
2018-01-15T21:21:25.676Z,23.50
2018-01-15T21:23:53.195Z,28.58
2018-01-15T21:26:20.655Z,25.70
2018-01-15T21:28:48.301Z,23.38
2018-01-15T21:31:15.772Z,26.27
2018-01-15T21:33:43.265Z,26.83
2018-01-15T21:36:10.737Z,25.80
2018-01-15T21:38:38.247Z,28.05
2018-01-15T21:41:05.713Z,22.85
2018-01-15T21:43:34.247Z,26.35
2018-01-15T21:46:01.723Z,29.87
2018-01-15T21:48:29.299Z,25.73
2018-01-15T21:50:56.847Z,27.13
2018-01-15T21:53:25.906Z,31.42
2018-01-15T21:55:53.374Z,23.35
2018-01-15T21:58:20.843Z,25.75
2018-01-15T22:00:48.389Z,24.33
2018-01-15T22:03:15.857Z,32.38
2018-01-15T22:05:43.320Z,29.40
2018-01-15T22:08:10.927Z,28.02
2018-01-15T22:10:38.440Z,24.85
2018-01-15T22:13:05.895Z,22.55
2018-01-15T22:15:33.456Z,29.70
2018-01-15T22:18:00.967Z,26.95
2018-01-15T22:20:28.528Z,24.60
2018-01-15T22:22:55.984Z,23.42
2018-01-15T22:25:23.465Z,25.98
2018-01-15T22:27:50.920Z,26.52
2018-01-15T22:30:18.460Z,23.38
2018-01-15T22:32:45.960Z,22.73
2018-01-15T22:35:13.422Z,29.65
2018-01-15T22:37:40.881Z,22.45
2018-01-15T22:40:08.356Z,28.27
2018-01-15T22:42:36.595Z,23.02
2018-01-15T22:45:04.075Z,23.33
2018-01-15T22:47:31.529Z,20.73
2018-01-15T22:49:59.085Z,23.23
2018-01-15T22:52:26.639Z,27.08
2018-01-15T22:54:54.104Z,24.40
2018-01-15T22:57:21.653Z,26.65
2018-01-15T22:59:49.109Z,23.02
2018-01-15T23:02:17.368Z,26.65
2018-01-15T23:04:44.842Z,29.65
2018-01-15T23:07:12.316Z,24.73
2018-01-15T23:09:40.558Z,27.67
2018-01-15T23:12:08.015Z,23.05
2018-01-15T23:14:35.494Z,24.00
2018-01-15T23:17:02.956Z,21.83
2018-01-15T23:19:31.219Z,27.95
2018-01-15T23:21:58.686Z,21.58
2018-01-15T23:24:26.144Z,22.85
2018-01-15T23:26:53.688Z,27.77
2018-01-15T23:29:21.151Z,22.70
2018-01-15T23:31:48.711Z,21.73
2018-01-15T23:34:16.180Z,25.65
2018-01-15T23:36:44.419Z,25.12
2018-01-15T23:39:11.889Z,24.55
2018-01-15T23:41:39.352Z,24.65
2018-01-15T23:44:08.321Z,27.30
2018-01-15T23:46:35.788Z,25.37
2018-01-15T23:49:03.294Z,26.08
2018-01-15T23:51:31.515Z,23.77
2018-01-15T23:53:58.984Z,27.05
2018-01-15T23:56:26.438Z,28.73
2018-01-15T23:58:54.008Z,18.73
